sensor_id;sensor_type;location;lat;lon;timestamp;P1;durP1;ratioP1;P2;durP2;ratioP2
54823;SDS011;40724;53.196;5.980;2023-09-08T00:00:11;11.95;;;6.30;;
54823;SDS011;40724;53.196;5.980;2023-09-08T00:02:37;9.40;;;6.05;;
54823;SDS011;40724;53.196;5.980;2023-09-08T00:05:03;9.77;;;7.57;;
54823;SDS011;40724;53.196;5.980;2023-09-08T00:07:29;10.55;;;6.72;;
54823;SDS011;40724;53.196;5.980;2023-09-08T00:09:55;10.40;;;6.60;;
54823;SDS011;40724;53.196;5.980;2023-09-08T00:12:21;10.65;;;6.07;;
54823;SDS011;40724;53.196;5.980;2023-09-08T00:14:49;10.50;;;6.32;;
54823;SDS011;40724;53.196;5.980;2023-09-08T00:17:15;9.00;;;6.70;;
54823;SDS011;40724;53.196;5.980;2023-09-08T00:19:41;10.52;;;6.75;;
54823;SDS011;40724;53.196;5.980;2023-09-08T00:22:07;9.55;;;6.60;;
54823;SDS011;40724;53.196;5.980;2023-09-08T00:24:33;7.90;;;6.85;;
54823;SDS011;40724;53.196;5.980;2023-09-08T00:26:59;10.63;;;6.78;;
54823;SDS011;40724;53.196;5.980;2023-09-08T00:29:25;8.90;;;6.78;;
54823;SDS011;40724;53.196;5.980;2023-09-08T00:31:52;8.63;;;6.82;;
54823;SDS011;40724;53.196;5.980;2023-09-08T00:34:18;11.25;;;7.60;;
54823;SDS011;40724;53.196;5.980;2023-09-08T00:36:44;7.78;;;6.82;;
54823;SDS011;40724;53.196;5.980;2023-09-08T00:39:10;8.20;;;6.90;;
54823;SDS011;40724;53.196;5.980;2023-09-08T00:41:36;9.35;;;7.50;;
54823;SDS011;40724;53.196;5.980;2023-09-08T00:44:02;12.13;;;7.75;;
54823;SDS011;40724;53.196;5.980;2023-09-08T00:46:29;9.68;;;7.18;;
54823;SDS011;40724;53.196;5.980;2023-09-08T00:48:57;9.25;;;6.53;;
54823;SDS011;40724;53.196;5.980;2023-09-08T00:51:23;9.50;;;6.25;;
54823;SDS011;40724;53.196;5.980;2023-09-08T00:53:49;9.73;;;6.45;;
54823;SDS011;40724;53.196;5.980;2023-09-08T00:56:16;9.70;;;7.30;;
54823;SDS011;40724;53.196;5.980;2023-09-08T00:58:42;9.98;;;7.55;;
54823;SDS011;40724;53.196;5.980;2023-09-08T01:01:08;9.25;;;7.00;;
54823;SDS011;40724;53.196;5.980;2023-09-08T01:03:34;8.13;;;6.85;;
54823;SDS011;40724;53.196;5.980;2023-09-08T01:06:00;8.55;;;7.60;;
54823;SDS011;40724;53.196;5.980;2023-09-08T01:08:27;8.82;;;7.85;;
54823;SDS011;40724;53.196;5.980;2023-09-08T01:10:53;11.02;;;7.22;;
54823;SDS011;40724;53.196;5.980;2023-09-08T01:13:20;7.97;;;7.18;;
54823;SDS011;40724;53.196;5.980;2023-09-08T01:15:46;12.00;;;7.30;;
54823;SDS011;40724;53.196;5.980;2023-09-08T01:18:12;9.63;;;6.75;;
54823;SDS011;40724;53.196;5.980;2023-09-08T01:20:47;12.77;;;7.50;;
54823;SDS011;40724;53.196;5.980;2023-09-08T01:25:55;13.18;;;7.63;;
54823;SDS011;40724;53.196;5.980;2023-09-08T01:28:22;8.50;;;7.57;;
54823;SDS011;40724;53.196;5.980;2023-09-08T01:30:49;13.63;;;8.13;;
54823;SDS011;40724;53.196;5.980;2023-09-08T01:33:15;9.25;;;7.60;;
54823;SDS011;40724;53.196;5.980;2023-09-08T01:35:41;9.23;;;7.82;;
54823;SDS011;40724;53.196;5.980;2023-09-08T01:38:08;9.52;;;7.90;;
54823;SDS011;40724;53.196;5.980;2023-09-08T01:40:34;9.25;;;6.95;;
54823;SDS011;40724;53.196;5.980;2023-09-08T01:43:00;14.13;;;8.45;;
54823;SDS011;40724;53.196;5.980;2023-09-08T01:45:26;9.07;;;6.80;;
54823;SDS011;40724;53.196;5.980;2023-09-08T01:47:52;13.52;;;8.48;;
54823;SDS011;40724;53.196;5.980;2023-09-08T01:50:19;9.23;;;7.32;;
54823;SDS011;40724;53.196;5.980;2023-09-08T01:52:50;9.35;;;6.70;;
54823;SDS011;40724;53.196;5.980;2023-09-08T01:55:16;11.75;;;8.57;;
54823;SDS011;40724;53.196;5.980;2023-09-08T01:57:42;9.75;;;8.57;;
54823;SDS011;40724;53.196;5.980;2023-09-08T02:00:09;8.38;;;7.20;;
54823;SDS011;40724;53.196;5.980;2023-09-08T02:02:36;9.57;;;8.48;;
54823;SDS011;40724;53.196;5.980;2023-09-08T02:05:02;11.20;;;8.35;;
54823;SDS011;40724;53.196;5.980;2023-09-08T02:07:28;9.35;;;7.75;;
54823;SDS011;40724;53.196;5.980;2023-09-08T02:09:54;9.00;;;7.72;;
54823;SDS011;40724;53.196;5.980;2023-09-08T02:12:21;10.00;;;7.10;;
54823;SDS011;40724;53.196;5.980;2023-09-08T02:14:47;10.38;;;7.68;;
54823;SDS011;40724;53.196;5.980;2023-09-08T02:17:13;8.13;;;7.22;;
54823;SDS011;40724;53.196;5.980;2023-09-08T02:19:40;12.18;;;8.38;;
54823;SDS011;40724;53.196;5.980;2023-09-08T02:22:06;8.75;;;7.20;;
54823;SDS011;40724;53.196;5.980;2023-09-08T02:24:32;9.85;;;8.25;;
54823;SDS011;40724;53.196;5.980;2023-09-08T02:26:58;10.35;;;8.55;;
54823;SDS011;40724;53.196;5.980;2023-09-08T02:29:24;9.30;;;7.88;;
54823;SDS011;40724;53.196;5.980;2023-09-08T02:31:50;13.77;;;8.82;;
54823;SDS011;40724;53.196;5.980;2023-09-08T02:34:16;12.90;;;8.23;;
54823;SDS011;40724;53.196;5.980;2023-09-08T02:36:42;9.27;;;7.45;;
54823;SDS011;40724;53.196;5.980;2023-09-08T02:39:09;9.85;;;7.47;;
54823;SDS011;40724;53.196;5.980;2023-09-08T02:41:36;10.30;;;8.30;;
54823;SDS011;40724;53.196;5.980;2023-09-08T02:44:02;11.10;;;7.57;;
54823;SDS011;40724;53.196;5.980;2023-09-08T02:46:28;11.73;;;9.05;;
54823;SDS011;40724;53.196;5.980;2023-09-08T02:48:54;8.43;;;7.13;;
54823;SDS011;40724;53.196;5.980;2023-09-08T02:51:20;10.65;;;8.63;;
54823;SDS011;40724;53.196;5.980;2023-09-08T02:53:46;10.48;;;8.43;;
54823;SDS011;40724;53.196;5.980;2023-09-08T02:56:13;9.18;;;8.20;;
54823;SDS011;40724;53.196;5.980;2023-09-08T02:58:39;10.75;;;8.15;;
54823;SDS011;40724;53.196;5.980;2023-09-08T03:01:12;11.75;;;8.70;;
54823;SDS011;40724;53.196;5.980;2023-09-08T03:03:39;10.68;;;8.13;;
54823;SDS011;40724;53.196;5.980;2023-09-08T03:06:06;8.60;;;7.70;;
54823;SDS011;40724;53.196;5.980;2023-09-08T03:08:32;9.38;;;8.40;;
54823;SDS011;40724;53.196;5.980;2023-09-08T03:10:58;11.82;;;8.25;;
54823;SDS011;40724;53.196;5.980;2023-09-08T03:13:25;15.60;;;8.38;;
54823;SDS011;40724;53.196;5.980;2023-09-08T03:15:51;11.57;;;8.73;;
54823;SDS011;40724;53.196;5.980;2023-09-08T03:18:17;10.85;;;8.00;;
54823;SDS011;40724;53.196;5.980;2023-09-08T03:20:47;9.60;;;8.60;;
54823;SDS011;40724;53.196;5.980;2023-09-08T03:23:13;9.55;;;8.57;;
54823;SDS011;40724;53.196;5.980;2023-09-08T03:25:40;8.98;;;7.32;;
54823;SDS011;40724;53.196;5.980;2023-09-08T03:28:06;11.98;;;9.40;;
54823;SDS011;40724;53.196;5.980;2023-09-08T03:30:32;9.80;;;8.02;;
54823;SDS011;40724;53.196;5.980;2023-09-08T03:32:58;10.70;;;9.20;;
54823;SDS011;40724;53.196;5.980;2023-09-08T03:35:24;9.82;;;8.68;;
54823;SDS011;40724;53.196;5.980;2023-09-08T03:37:50;9.73;;;7.75;;
54823;SDS011;40724;53.196;5.980;2023-09-08T03:40:16;12.30;;;9.32;;
54823;SDS011;40724;53.196;5.980;2023-09-08T03:42:42;12.88;;;9.40;;
54823;SDS011;40724;53.196;5.980;2023-09-08T03:45:09;10.98;;;9.15;;
54823;SDS011;40724;53.196;5.980;2023-09-08T03:47:35;10.70;;;8.15;;
54823;SDS011;40724;53.196;5.980;2023-09-08T03:50:01;11.32;;;8.00;;
54823;SDS011;40724;53.196;5.980;2023-09-08T03:52:33;10.63;;;8.70;;
54823;SDS011;40724;53.196;5.980;2023-09-08T03:54:59;13.75;;;8.85;;
54823;SDS011;40724;53.196;5.980;2023-09-08T03:57:25;9.13;;;8.23;;
54823;SDS011;40724;53.196;5.980;2023-09-08T03:59:51;9.68;;;8.55;;
54823;SDS011;40724;53.196;5.980;2023-09-08T04:02:18;11.63;;;9.30;;
54823;SDS011;40724;53.196;5.980;2023-09-08T04:04:44;10.20;;;8.52;;
54823;SDS011;40724;53.196;5.980;2023-09-08T04:07:10;12.88;;;9.60;;
54823;SDS011;40724;53.196;5.980;2023-09-08T04:09:36;10.40;;;8.27;;
54823;SDS011;40724;53.196;5.980;2023-09-08T04:12:02;12.50;;;8.38;;
54823;SDS011;40724;53.196;5.980;2023-09-08T04:14:28;13.57;;;10.07;;
54823;SDS011;40724;53.196;5.980;2023-09-08T04:16:55;11.25;;;8.90;;
54823;SDS011;40724;53.196;5.980;2023-09-08T04:19:21;11.32;;;9.07;;
54823;SDS011;40724;53.196;5.980;2023-09-08T04:21:47;9.93;;;8.15;;
54823;SDS011;40724;53.196;5.980;2023-09-08T04:24:13;12.05;;;9.18;;
54823;SDS011;40724;53.196;5.980;2023-09-08T04:26:39;9.80;;;8.80;;
54823;SDS011;40724;53.196;5.980;2023-09-08T04:29:06;9.07;;;7.93;;
54823;SDS011;40724;53.196;5.980;2023-09-08T04:31:32;11.52;;;10.32;;
54823;SDS011;40724;53.196;5.980;2023-09-08T04:33:58;12.40;;;10.35;;
54823;SDS011;40724;53.196;5.980;2023-09-08T04:36:24;12.70;;;8.77;;
54823;SDS011;40724;53.196;5.980;2023-09-08T04:38:50;11.98;;;9.15;;
54823;SDS011;40724;53.196;5.980;2023-09-08T04:41:16;11.45;;;9.82;;
54823;SDS011;40724;53.196;5.980;2023-09-08T04:43:42;9.68;;;8.68;;
54823;SDS011;40724;53.196;5.980;2023-09-08T04:46:08;9.75;;;8.75;;
54823;SDS011;40724;53.196;5.980;2023-09-08T04:48:34;14.38;;;9.23;;
54823;SDS011;40724;53.196;5.980;2023-09-08T04:51:00;10.80;;;9.65;;
54823;SDS011;40724;53.196;5.980;2023-09-08T04:53:27;10.90;;;9.02;;
54823;SDS011;40724;53.196;5.980;2023-09-08T04:55:53;10.48;;;9.40;;
54823;SDS011;40724;53.196;5.980;2023-09-08T04:58:19;11.18;;;9.60;;
54823;SDS011;40724;53.196;5.980;2023-09-08T05:00:45;10.43;;;9.30;;
54823;SDS011;40724;53.196;5.980;2023-09-08T05:03:11;11.40;;;9.85;;
54823;SDS011;40724;53.196;5.980;2023-09-08T05:05:37;13.05;;;9.93;;
54823;SDS011;40724;53.196;5.980;2023-09-08T05:08:04;11.65;;;10.15;;
54823;SDS011;40724;53.196;5.980;2023-09-08T05:10:30;10.50;;;9.38;;
54823;SDS011;40724;53.196;5.980;2023-09-08T05:12:57;15.07;;;9.80;;
54823;SDS011;40724;53.196;5.980;2023-09-08T05:15:23;12.45;;;10.05;;
54823;SDS011;40724;53.196;5.980;2023-09-08T05:17:50;12.40;;;9.38;;
54823;SDS011;40724;53.196;5.980;2023-09-08T05:20:16;11.90;;;10.13;;
54823;SDS011;40724;53.196;5.980;2023-09-08T05:22:42;11.60;;;9.68;;
54823;SDS011;40724;53.196;5.980;2023-09-08T05:25:09;10.65;;;9.55;;
54823;SDS011;40724;53.196;5.980;2023-09-08T05:27:35;13.48;;;10.10;;
54823;SDS011;40724;53.196;5.980;2023-09-08T05:30:01;10.27;;;9.15;;
54823;SDS011;40724;53.196;5.980;2023-09-08T05:32:27;13.68;;;9.63;;
54823;SDS011;40724;53.196;5.980;2023-09-08T05:34:54;12.70;;;10.07;;
54823;SDS011;40724;53.196;5.980;2023-09-08T05:37:20;12.50;;;10.43;;
54823;SDS011;40724;53.196;5.980;2023-09-08T05:39:46;12.18;;;8.68;;
54823;SDS011;40724;53.196;5.980;2023-09-08T05:42:12;12.27;;;9.30;;
54823;SDS011;40724;53.196;5.980;2023-09-08T05:44:38;10.20;;;9.20;;
54823;SDS011;40724;53.196;5.980;2023-09-08T05:47:05;14.05;;;10.65;;
54823;SDS011;40724;53.196;5.980;2023-09-08T05:49:31;11.73;;;9.82;;
54823;SDS011;40724;53.196;5.980;2023-09-08T05:51:57;12.27;;;10.10;;
54823;SDS011;40724;53.196;5.980;2023-09-08T05:54:23;13.50;;;9.45;;
54823;SDS011;40724;53.196;5.980;2023-09-08T05:56:49;10.35;;;9.05;;
54823;SDS011;40724;53.196;5.980;2023-09-08T05:59:15;14.10;;;10.18;;
54823;SDS011;40724;53.196;5.980;2023-09-08T06:01:42;12.02;;;9.88;;
54823;SDS011;40724;53.196;5.980;2023-09-08T06:04:08;10.65;;;9.45;;
54823;SDS011;40724;53.196;5.980;2023-09-08T06:06:34;16.15;;;10.98;;
54823;SDS011;40724;53.196;5.980;2023-09-08T06:09:00;11.63;;;8.57;;
54823;SDS011;40724;53.196;5.980;2023-09-08T06:11:26;12.02;;;9.63;;
54823;SDS011;40724;53.196;5.980;2023-09-08T06:13:53;10.75;;;8.18;;
54823;SDS011;40724;53.196;5.980;2023-09-08T06:16:24;14.75;;;10.20;;
54823;SDS011;40724;53.196;5.980;2023-09-08T06:18:50;11.18;;;9.55;;
54823;SDS011;40724;53.196;5.980;2023-09-08T06:21:16;9.73;;;8.73;;
54823;SDS011;40724;53.196;5.980;2023-09-08T06:23:42;11.52;;;8.82;;
54823;SDS011;40724;53.196;5.980;2023-09-08T06:26:08;13.98;;;10.40;;
54823;SDS011;40724;53.196;5.980;2023-09-08T06:28:33;12.07;;;10.02;;
54823;SDS011;40724;53.196;5.980;2023-09-08T06:31:00;10.07;;;8.63;;
54823;SDS011;40724;53.196;5.980;2023-09-08T06:33:26;11.82;;;9.35;;
54823;SDS011;40724;53.196;5.980;2023-09-08T06:35:52;15.90;;;8.50;;
54823;SDS011;40724;53.196;5.980;2023-09-08T06:38:18;12.13;;;8.90;;
54823;SDS011;40724;53.196;5.980;2023-09-08T06:40:44;13.82;;;8.63;;
54823;SDS011;40724;53.196;5.980;2023-09-08T06:43:10;13.05;;;9.82;;
54823;SDS011;40724;53.196;5.980;2023-09-08T06:45:39;10.52;;;8.43;;
54823;SDS011;40724;53.196;5.980;2023-09-08T06:48:05;12.02;;;8.52;;
54823;SDS011;40724;53.196;5.980;2023-09-08T06:50:31;9.52;;;8.27;;
54823;SDS011;40724;53.196;5.980;2023-09-08T06:52:57;11.05;;;8.30;;
54823;SDS011;40724;53.196;5.980;2023-09-08T06:55:25;11.73;;;9.15;;
54823;SDS011;40724;53.196;5.980;2023-09-08T06:57:51;9.52;;;6.95;;
54823;SDS011;40724;53.196;5.980;2023-09-08T07:00:17;11.05;;;7.55;;
54823;SDS011;40724;53.196;5.980;2023-09-08T07:02:45;10.15;;;8.10;;
54823;SDS011;40724;53.196;5.980;2023-09-08T07:05:11;7.95;;;6.93;;
54823;SDS011;40724;53.196;5.980;2023-09-08T07:07:38;9.15;;;6.68;;
54823;SDS011;40724;53.196;5.980;2023-09-08T07:10:05;10.32;;;6.53;;
54823;SDS011;40724;53.196;5.980;2023-09-08T07:12:31;10.52;;;7.43;;
54823;SDS011;40724;53.196;5.980;2023-09-08T07:14:57;8.95;;;7.30;;
54823;SDS011;40724;53.196;5.980;2023-09-08T07:17:25;10.50;;;6.57;;
54823;SDS011;40724;53.196;5.980;2023-09-08T07:19:51;10.05;;;7.38;;
54823;SDS011;40724;53.196;5.980;2023-09-08T07:22:17;8.20;;;6.30;;
54823;SDS011;40724;53.196;5.980;2023-09-08T07:24:44;7.70;;;5.82;;
54823;SDS011;40724;53.196;5.980;2023-09-08T07:27:10;8.10;;;5.55;;
54823;SDS011;40724;53.196;5.980;2023-09-08T07:29:39;8.57;;;7.47;;
54823;SDS011;40724;53.196;5.980;2023-09-08T07:32:06;6.90;;;5.78;;
54823;SDS011;40724;53.196;5.980;2023-09-08T07:34:32;9.00;;;7.03;;
54823;SDS011;40724;53.196;5.980;2023-09-08T07:36:59;7.18;;;6.10;;
54823;SDS011;40724;53.196;5.980;2023-09-08T07:39:25;8.27;;;7.32;;
54823;SDS011;40724;53.196;5.980;2023-09-08T07:41:51;9.52;;;6.85;;
54823;SDS011;40724;53.196;5.980;2023-09-08T07:44:18;12.98;;;7.90;;
54823;SDS011;40724;53.196;5.980;2023-09-08T07:46:44;9.32;;;6.85;;
54823;SDS011;40724;53.196;5.980;2023-09-08T07:49:14;13.60;;;7.85;;
54823;SDS011;40724;53.196;5.980;2023-09-08T07:51:40;8.73;;;6.60;;
54823;SDS011;40724;53.196;5.980;2023-09-08T07:54:06;6.75;;;6.05;;
54823;SDS011;40724;53.196;5.980;2023-09-08T07:56:32;8.30;;;6.43;;
54823;SDS011;40724;53.196;5.980;2023-09-08T07:58:58;9.60;;;7.07;;
54823;SDS011;40724;53.196;5.980;2023-09-08T08:01:24;8.52;;;6.45;;
54823;SDS011;40724;53.196;5.980;2023-09-08T08:03:51;11.40;;;6.45;;
54823;SDS011;40724;53.196;5.980;2023-09-08T08:06:17;7.13;;;6.00;;
54823;SDS011;40724;53.196;5.980;2023-09-08T08:08:43;6.25;;;5.40;;
54823;SDS011;40724;53.196;5.980;2023-09-08T08:11:13;8.25;;;6.15;;
54823;SDS011;40724;53.196;5.980;2023-09-08T08:13:39;12.27;;;6.60;;
54823;SDS011;40724;53.196;5.980;2023-09-08T08:16:05;7.10;;;6.28;;
54823;SDS011;40724;53.196;5.980;2023-09-08T08:18:32;7.93;;;6.18;;
54823;SDS011;40724;53.196;5.980;2023-09-08T08:20:58;9.20;;;6.63;;
54823;SDS011;40724;53.196;5.980;2023-09-08T08:23:25;10.05;;;6.60;;
54823;SDS011;40724;53.196;5.980;2023-09-08T08:25:51;9.23;;;6.55;;
54823;SDS011;40724;53.196;5.980;2023-09-08T08:28:17;7.72;;;6.75;;
54823;SDS011;40724;53.196;5.980;2023-09-08T08:30:43;8.48;;;6.70;;
54823;SDS011;40724;53.196;5.980;2023-09-08T08:33:09;7.93;;;6.28;;
54823;SDS011;40724;53.196;5.980;2023-09-08T08:35:35;9.57;;;6.47;;
54823;SDS011;40724;53.196;5.980;2023-09-08T08:38:01;9.02;;;5.70;;
54823;SDS011;40724;53.196;5.980;2023-09-08T08:40:27;8.55;;;7.03;;
54823;SDS011;40724;53.196;5.980;2023-09-08T08:42:57;7.93;;;6.38;;
54823;SDS011;40724;53.196;5.980;2023-09-08T08:45:23;9.45;;;6.22;;
54823;SDS011;40724;53.196;5.980;2023-09-08T08:47:50;8.45;;;6.75;;
54823;SDS011;40724;53.196;5.980;2023-09-08T08:50:17;12.10;;;7.30;;
54823;SDS011;40724;53.196;5.980;2023-09-08T08:52:44;7.38;;;6.25;;
54823;SDS011;40724;53.196;5.980;2023-09-08T08:55:10;7.90;;;6.10;;
54823;SDS011;40724;53.196;5.980;2023-09-08T08:57:37;9.23;;;6.82;;
54823;SDS011;40724;53.196;5.980;2023-09-08T09:00:07;9.50;;;6.85;;
54823;SDS011;40724;53.196;5.980;2023-09-08T09:02:36;13.13;;;6.55;;
54823;SDS011;40724;53.196;5.980;2023-09-08T09:05:05;8.82;;;6.45;;
54823;SDS011;40724;53.196;5.980;2023-09-08T09:07:32;9.02;;;6.10;;
54823;SDS011;40724;53.196;5.980;2023-09-08T09:09:58;8.45;;;5.65;;
54823;SDS011;40724;53.196;5.980;2023-09-08T09:12:24;9.95;;;6.47;;
54823;SDS011;40724;53.196;5.980;2023-09-08T09:14:53;7.68;;;6.28;;
54823;SDS011;40724;53.196;5.980;2023-09-08T09:17:19;8.05;;;5.32;;
54823;SDS011;40724;53.196;5.980;2023-09-08T09:19:46;11.50;;;6.63;;
54823;SDS011;40724;53.196;5.980;2023-09-08T09:22:12;10.07;;;6.75;;
54823;SDS011;40724;53.196;5.980;2023-09-08T09:27:11;8.50;;;5.68;;
54823;SDS011;40724;53.196;5.980;2023-09-08T09:29:47;6.97;;;5.82;;
54823;SDS011;40724;53.196;5.980;2023-09-08T09:32:14;11.95;;;5.82;;
54823;SDS011;40724;53.196;5.980;2023-09-08T09:34:47;7.60;;;5.20;;
54823;SDS011;40724;53.196;5.980;2023-09-08T09:37:14;8.45;;;6.07;;
54823;SDS011;40724;53.196;5.980;2023-09-08T09:39:40;8.52;;;6.55;;
54823;SDS011;40724;53.196;5.980;2023-09-08T09:42:06;8.15;;;6.30;;
54823;SDS011;40724;53.196;5.980;2023-09-08T09:44:32;7.78;;;5.50;;
54823;SDS011;40724;53.196;5.980;2023-09-08T09:46:59;6.28;;;5.22;;
54823;SDS011;40724;53.196;5.980;2023-09-08T09:49:26;7.82;;;5.75;;
54823;SDS011;40724;53.196;5.980;2023-09-08T09:51:57;6.97;;;5.90;;
54823;SDS011;40724;53.196;5.980;2023-09-08T09:54:24;6.18;;;5.40;;
54823;SDS011;40724;53.196;5.980;2023-09-08T09:56:50;7.57;;;5.47;;
54823;SDS011;40724;53.196;5.980;2023-09-08T09:59:17;10.88;;;5.72;;
54823;SDS011;40724;53.196;5.980;2023-09-08T10:01:43;11.00;;;6.03;;
54823;SDS011;40724;53.196;5.980;2023-09-08T10:04:11;9.68;;;5.70;;
54823;SDS011;40724;53.196;5.980;2023-09-08T10:06:38;6.45;;;5.75;;
54823;SDS011;40724;53.196;5.980;2023-09-08T10:09:05;8.20;;;5.43;;
54823;SDS011;40724;53.196;5.980;2023-09-08T10:11:42;7.60;;;5.70;;
54823;SDS011;40724;53.196;5.980;2023-09-08T10:14:08;8.30;;;5.60;;
54823;SDS011;40724;53.196;5.980;2023-09-08T10:16:37;6.70;;;5.13;;
54823;SDS011;40724;53.196;5.980;2023-09-08T10:19:06;6.50;;;5.47;;
54823;SDS011;40724;53.196;5.980;2023-09-08T10:21:33;6.75;;;5.38;;
54823;SDS011;40724;53.196;5.980;2023-09-08T10:24:07;6.68;;;4.90;;
54823;SDS011;40724;53.196;5.980;2023-09-08T10:26:37;6.50;;;5.05;;
54823;SDS011;40724;53.196;5.980;2023-09-08T10:29:06;6.38;;;5.30;;
54823;SDS011;40724;53.196;5.980;2023-09-08T10:31:35;7.22;;;5.65;;
54823;SDS011;40724;53.196;5.980;2023-09-08T10:34:02;7.30;;;5.07;;
54823;SDS011;40724;53.196;5.980;2023-09-08T10:36:29;7.13;;;5.20;;
54823;SDS011;40724;53.196;5.980;2023-09-08T10:39:07;7.05;;;6.05;;
54823;SDS011;40724;53.196;5.980;2023-09-08T10:41:41;7.85;;;5.30;;
54823;SDS011;40724;53.196;5.980;2023-09-08T10:44:07;7.57;;;5.40;;
54823;SDS011;40724;53.196;5.980;2023-09-08T10:46:34;6.72;;;5.28;;
54823;SDS011;40724;53.196;5.980;2023-09-08T10:49:04;7.35;;;5.93;;
54823;SDS011;40724;53.196;5.980;2023-09-08T10:51:32;8.20;;;5.95;;
54823;SDS011;40724;53.196;5.980;2023-09-08T10:53:59;6.20;;;5.38;;
54823;SDS011;40724;53.196;5.980;2023-09-08T10:59:10;6.30;;;5.50;;
54823;SDS011;40724;53.196;5.980;2023-09-08T11:01:37;6.40;;;5.72;;
54823;SDS011;40724;53.196;5.980;2023-09-08T11:04:04;6.75;;;5.75;;
54823;SDS011;40724;53.196;5.980;2023-09-08T11:06:33;6.18;;;4.78;;
54823;SDS011;40724;53.196;5.980;2023-09-08T11:09:05;8.48;;;6.30;;
54823;SDS011;40724;53.196;5.980;2023-09-08T11:11:32;6.63;;;5.80;;
54823;SDS011;40724;53.196;5.980;2023-09-08T11:13:58;6.43;;;5.25;;
54823;SDS011;40724;53.196;5.980;2023-09-08T11:16:24;6.78;;;5.45;;
54823;SDS011;40724;53.196;5.980;2023-09-08T11:18:54;7.18;;;4.93;;
54823;SDS011;40724;53.196;5.980;2023-09-08T11:21:20;6.50;;;4.88;;
54823;SDS011;40724;53.196;5.980;2023-09-08T11:23:46;6.20;;;5.60;;
54823;SDS011;40724;53.196;5.980;2023-09-08T11:26:12;5.25;;;4.75;;
54823;SDS011;40724;53.196;5.980;2023-09-08T11:28:38;11.32;;;5.50;;
54823;SDS011;40724;53.196;5.980;2023-09-08T11:31:05;7.72;;;5.72;;
54823;SDS011;40724;53.196;5.980;2023-09-08T11:33:33;6.68;;;5.70;;
54823;SDS011;40724;53.196;5.980;2023-09-08T11:35:59;7.68;;;5.30;;
54823;SDS011;40724;53.196;5.980;2023-09-08T11:38:25;7.00;;;5.18;;
54823;SDS011;40724;53.196;5.980;2023-09-08T11:40:52;6.28;;;4.85;;
54823;SDS011;40724;53.196;5.980;2023-09-08T11:43:20;8.48;;;4.97;;
54823;SDS011;40724;53.196;5.980;2023-09-08T11:45:45;8.10;;;5.18;;
54823;SDS011;40724;53.196;5.980;2023-09-08T11:48:13;7.63;;;5.43;;
54823;SDS011;40724;53.196;5.980;2023-09-08T11:50:40;7.40;;;5.78;;
54823;SDS011;40724;53.196;5.980;2023-09-08T11:53:07;7.90;;;5.82;;
54823;SDS011;40724;53.196;5.980;2023-09-08T11:55:33;7.38;;;5.45;;
54823;SDS011;40724;53.196;5.980;2023-09-08T11:58:02;5.88;;;5.03;;
54823;SDS011;40724;53.196;5.980;2023-09-08T12:00:28;7.70;;;5.28;;
54823;SDS011;40724;53.196;5.980;2023-09-08T12:02:55;5.55;;;4.60;;
54823;SDS011;40724;53.196;5.980;2023-09-08T12:05:24;9.57;;;5.60;;
54823;SDS011;40724;53.196;5.980;2023-09-08T12:07:51;6.13;;;5.07;;
54823;SDS011;40724;53.196;5.980;2023-09-08T12:10:18;8.02;;;5.70;;
54823;SDS011;40724;53.196;5.980;2023-09-08T12:12:51;6.70;;;4.28;;
54823;SDS011;40724;53.196;5.980;2023-09-08T12:15:32;5.60;;;5.00;;
54823;SDS011;40724;53.196;5.980;2023-09-08T12:17:59;5.60;;;4.63;;
54823;SDS011;40724;53.196;5.980;2023-09-08T12:20:26;7.55;;;5.15;;
54823;SDS011;40724;53.196;5.980;2023-09-08T12:22:52;6.50;;;4.82;;
54823;SDS011;40724;53.196;5.980;2023-09-08T12:25:19;8.15;;;5.43;;
54823;SDS011;40724;53.196;5.980;2023-09-08T12:27:51;6.93;;;5.43;;
54823;SDS011;40724;53.196;5.980;2023-09-08T12:30:21;6.00;;;4.72;;
54823;SDS011;40724;53.196;5.980;2023-09-08T12:32:55;7.50;;;4.82;;
54823;SDS011;40724;53.196;5.980;2023-09-08T12:35:21;6.20;;;5.28;;
54823;SDS011;40724;53.196;5.980;2023-09-08T12:37:52;9.40;;;5.38;;
54823;SDS011;40724;53.196;5.980;2023-09-08T12:40:18;6.00;;;5.07;;
54823;SDS011;40724;53.196;5.980;2023-09-08T12:42:44;5.10;;;4.63;;
54823;SDS011;40724;53.196;5.980;2023-09-08T12:45:10;6.03;;;4.97;;
54823;SDS011;40724;53.196;5.980;2023-09-08T12:47:39;7.65;;;5.20;;
54823;SDS011;40724;53.196;5.980;2023-09-08T12:50:05;10.48;;;5.15;;
54823;SDS011;40724;53.196;5.980;2023-09-08T12:52:32;7.72;;;5.35;;
54823;SDS011;40724;53.196;5.980;2023-09-08T12:54:59;7.43;;;5.30;;
54823;SDS011;40724;53.196;5.980;2023-09-08T12:57:25;6.65;;;4.90;;
54823;SDS011;40724;53.196;5.980;2023-09-08T12:59:50;5.85;;;5.13;;
54823;SDS011;40724;53.196;5.980;2023-09-08T13:02:17;6.13;;;4.68;;
54823;SDS011;40724;53.196;5.980;2023-09-08T13:04:42;6.05;;;5.05;;
54823;SDS011;40724;53.196;5.980;2023-09-08T13:07:14;5.22;;;4.40;;
54823;SDS011;40724;53.196;5.980;2023-09-08T13:09:41;5.18;;;4.68;;
54823;SDS011;40724;53.196;5.980;2023-09-08T13:12:06;7.45;;;5.53;;
54823;SDS011;40724;53.196;5.980;2023-09-08T13:14:34;5.35;;;4.75;;
54823;SDS011;40724;53.196;5.980;2023-09-08T13:17:00;6.75;;;4.63;;
54823;SDS011;40724;53.196;5.980;2023-09-08T13:19:26;6.10;;;4.93;;
54823;SDS011;40724;53.196;5.980;2023-09-08T13:21:52;5.82;;;5.10;;
54823;SDS011;40724;53.196;5.980;2023-09-08T13:24:18;6.05;;;5.10;;
54823;SDS011;40724;53.196;5.980;2023-09-08T13:26:46;7.13;;;4.78;;
54823;SDS011;40724;53.196;5.980;2023-09-08T13:29:11;7.72;;;4.60;;
54823;SDS011;40724;53.196;5.980;2023-09-08T13:31:37;7.55;;;5.10;;
54823;SDS011;40724;53.196;5.980;2023-09-08T13:34:04;6.65;;;5.07;;
54823;SDS011;40724;53.196;5.980;2023-09-08T13:36:30;7.65;;;4.75;;
54823;SDS011;40724;53.196;5.980;2023-09-08T13:38:56;5.57;;;4.90;;
54823;SDS011;40724;53.196;5.980;2023-09-08T13:41:23;6.70;;;5.13;;
54823;SDS011;40724;53.196;5.980;2023-09-08T13:43:49;6.13;;;4.85;;
54823;SDS011;40724;53.196;5.980;2023-09-08T13:46:15;9.52;;;5.53;;
54823;SDS011;40724;53.196;5.980;2023-09-08T13:48:42;6.28;;;5.55;;
54823;SDS011;40724;53.196;5.980;2023-09-08T13:51:08;6.20;;;5.13;;
54823;SDS011;40724;53.196;5.980;2023-09-08T13:53:33;6.68;;;5.45;;
54823;SDS011;40724;53.196;5.980;2023-09-08T13:56:00;8.30;;;5.18;;
54823;SDS011;40724;53.196;5.980;2023-09-08T13:58:26;6.30;;;5.53;;
54823;SDS011;40724;53.196;5.980;2023-09-08T14:00:52;5.45;;;4.85;;
54823;SDS011;40724;53.196;5.980;2023-09-08T14:03:17;5.20;;;4.60;;
54823;SDS011;40724;53.196;5.980;2023-09-08T14:05:44;5.22;;;4.30;;
54823;SDS011;40724;53.196;5.980;2023-09-08T14:08:09;8.40;;;5.57;;
54823;SDS011;40724;53.196;5.980;2023-09-08T14:10:35;8.00;;;4.97;;
54823;SDS011;40724;53.196;5.980;2023-09-08T14:13:01;7.68;;;5.15;;
54823;SDS011;40724;53.196;5.980;2023-09-08T14:15:27;6.03;;;5.15;;
54823;SDS011;40724;53.196;5.980;2023-09-08T14:17:52;5.40;;;4.28;;
54823;SDS011;40724;53.196;5.980;2023-09-08T14:20:18;6.20;;;5.60;;
54823;SDS011;40724;53.196;5.980;2023-09-08T14:22:44;8.25;;;5.38;;
54823;SDS011;40724;53.196;5.980;2023-09-08T14:25:10;6.68;;;5.20;;
54823;SDS011;40724;53.196;5.980;2023-09-08T14:27:36;8.43;;;5.47;;
54823;SDS011;40724;53.196;5.980;2023-09-08T14:30:02;6.32;;;5.18;;
54823;SDS011;40724;53.196;5.980;2023-09-08T14:32:31;6.70;;;5.22;;
54823;SDS011;40724;53.196;5.980;2023-09-08T14:34:56;5.05;;;4.40;;
54823;SDS011;40724;53.196;5.980;2023-09-08T14:37:22;5.75;;;5.10;;
54823;SDS011;40724;53.196;5.980;2023-09-08T14:39:48;5.35;;;4.85;;
54823;SDS011;40724;53.196;5.980;2023-09-08T14:42:14;6.30;;;5.32;;
54823;SDS011;40724;53.196;5.980;2023-09-08T14:44:40;5.38;;;4.68;;
54823;SDS011;40724;53.196;5.980;2023-09-08T14:47:07;5.43;;;4.93;;